Time;durP1;ratioP1;P1;durP2;ratioP2;P2;SDS_P1;SDS_P2;PMS_P1;PMS_P2;Temp;Humidity;BMP_temperature;BMP_pressure;BME280_temperature;BME280_humidity;BME280_pressure;Samples;Min_cycle;Max_cycle;Signal;HPM_P1;HPM_P2
2022/12/12 07:37:46;;;;;;;1.83;1.47;;;-1.90;99.90;-3.00;100824.00;;;;4987036;28;20669;-72
2022/12/12 07:41:01;;;;;;;6.77;3.47;;;-1.90;99.90;-3.10;100823.00;;;;4965131;28;20203;-72
2022/12/12 07:44:03;;;;;;;0.70;0.70;;;-2.00;99.90;-2.90;100891.00;;;;4990945;28;20202;-73
2022/12/12 07:46:56;;;;;;;1.97;1.90;;;-2.00;99.90;-3.10;100882.00;;;;4978165;28;20566;-72
2022/12/12 07:50:00;;;;;;;2.30;1.47;;;-2.00;99.90;-2.90;100891.00;;;;4968366;28;20319;-73
2022/12/12 07:53:12;;;;;;;1.73;1.63;;;-2.00;99.90;-2.80;100895.00;;;;4991063;28;20208;-72
2022/12/12 07:56:30;;;;;;;0.87;0.87;;;-1.90;99.90;-2.80;100908.00;;;;4956719;28;20199;-72
2022/12/12 07:59:13;;;;;;;2.80;1.63;;;-1.90;99.90;-2.70;100897.00;;;;4987442;28;20188;-72
2022/12/12 08:01:57;;;;;;;2.13;2.00;;;-1.80;99.90;-2.70;100902.00;;;;4973923;28;20224;-73
2022/12/12 08:05:08;;;;;;;0.77;0.77;;;-1.80;99.90;-2.80;100900.00;;;;4962572;28;20203;-72
2022/12/12 08:07:59;;;;;;;0.90;0.90;;;-1.90;99.90;-2.90;100918.00;;;;4947434;28;20216;-74
2022/12/12 08:10:32;;;;;;;1.60;1.50;;;-1.90;99.90;-2.90;100922.00;;;;4982291;28;20292;-72
2022/12/12 08:13:00;;;;;;;5.20;2.40;;;-1.90;99.90;-2.70;100917.00;;;;4972975;28;20291;-72
2022/12/12 08:16:02;;;;;;;2.60;2.03;;;-1.80;99.90;-2.90;100891.00;;;;4987004;28;20608;-73
2022/12/12 08:18:35;;;;;;;0.50;0.50;;;-1.80;99.90;-2.70;100864.00;;;;4972605;28;20207;-72
2022/12/12 08:21:22;;;;;;;1.80;1.00;;;-1.90;99.90;-2.70;100904.00;;;;4976330;28;20200;-73
2022/12/12 08:24:16;;;;;;;0.70;0.70;;;-1.80;99.90;-2.40;100904.00;;;;4991201;28;20281;-73
2022/12/12 08:27:10;;;;;;;2.20;1.90;;;-1.70;99.90;-2.90;100918.00;;;;4950693;28;20296;-73
2022/12/12 08:29:44;;;;;;;4.43;3.80;;;-1.80;99.90;-2.50;100869.00;;;;4966247;28;20200;-73
2022/12/12 08:32:10;;;;;;;1.23;1.20;;;-1.80;99.90;-2.40;100919.00;;;;4981073;28;20214;-73
2022/12/12 08:34:41;;;;;;;1.83;1.67;;;-1.70;99.90;-2.50;100922.00;;;;4948122;28;20204;-73
2022/12/12 08:37:07;;;;;;;3.77;3.47;;;-1.60;99.90;-2.40;100916.00;;;;4976765;28;20644;-73
2022/12/12 08:39:32;;;;;;;6.83;3.03;;;-1.50;99.90;-2.60;100901.00;;;;4968955;28;20283;-73
2022/12/12 08:42:06;;;;;;;3.43;3.03;;;-1.60;99.90;-2.50;100910.00;;;;4983558;28;20275;-73
2022/12/12 08:44:37;;;;;;;5.30;1.67;;;-1.60;99.90;-2.50;100916.00;;;;4943452;28;20205;-73
2022/12/12 08:47:03;;;;;;;2.20;2.10;;;-1.60;99.90;-2.40;100856.00;;;;4983877;28;20254;-73
2022/12/12 08:49:31;;;;;;;1.53;1.43;;;-1.50;99.90;-2.30;100905.00;;;;4994830;28;20206;-73
2022/12/12 08:51:57;;;;;;;1.70;1.63;;;-1.50;99.90;-2.60;100923.00;;;;4977866;28;20745;-73
2022/12/12 08:54:26;;;;;;;4.77;4.47;;;-1.50;99.90;-2.30;100918.00;;;;4981095;28;20200;-73
2022/12/12 08:56:52;;;;;;;3.80;1.87;;;-1.50;99.90;-2.30;100910.00;;;;4964834;28;20254;-73
2022/12/12 08:59:20;;;;;;;4.47;4.10;;;-1.40;99.90;-2.30;100914.00;;;;4985473;28;20682;-73
2022/12/12 09:02:10;;;;;;;8.57;7.07;;;-1.30;99.90;-2.40;100910.00;;;;4987796;28;20207;-73
2022/12/12 09:04:37;;;;;;;0.67;0.67;;;-1.40;99.90;-2.40;100921.00;;;;4982384;28;20204;-73
2022/12/12 09:07:06;;;;;;;1.13;1.07;;;-1.40;99.90;-2.30;100921.00;;;;4965034;28;20288;-72
2022/12/12 09:09:32;;;;;;;1.83;1.63;;;-1.40;99.90;-1.90;100911.00;;;;4985161;28;20196;-73
2022/12/12 09:12:08;;;;;;;2.27;2.17;;;-1.20;99.90;-2.20;100905.00;;;;4970264;28;20219;-64
2022/12/12 09:14:34;;;;;;;3.47;3.17;;;-1.20;99.90;-1.80;100915.00;;;;4942856;28;20200;-70
2022/12/12 09:17:00;;;;;;;2.10;1.97;;;-1.10;99.90;-1.90;100882.00;;;;4973101;28;20280;-70
2022/12/12 09:19:26;;;;;;;5.50;3.87;;;-1.00;99.90;-2.00;100920.00;;;;4977090;28;20211;-63
2022/12/12 09:21:52;;;;;;;2.33;2.23;;;-1.00;99.90;-1.80;100905.00;;;;4967201;28;20203;-70
2022/12/12 09:24:18;;;;;;;1.80;1.43;;;-1.00;99.90;-1.70;100920.00;;;;4980928;28;20197;-69
2022/12/12 09:26:44;;;;;;;0.77;0.77;;;-0.80;99.90;-2.10;100894.00;;;;4961497;28;20204;-69
2022/12/12 09:29:11;;;;;;;2.03;1.90;;;-1.00;99.90;-1.80;100913.00;;;;4968662;28;20196;-69
2022/12/12 09:31:40;;;;;;;4.47;2.33;;;-0.80;99.90;-1.70;100909.00;;;;4957141;28;20276;-69
2022/12/12 09:34:06;;;;;;;1.37;1.27;;;-0.80;99.90;-1.60;100906.00;;;;4940480;28;20288;-69
2022/12/12 09:36:32;;;;;;;4.30;3.47;;;-0.70;99.90;-1.30;100904.00;;;;4971333;28;20295;-69
2022/12/12 09:38:58;;;;;;;0.80;0.80;;;-0.60;99.90;-1.20;100913.00;;;;4975550;28;20235;-69
2022/12/12 09:41:25;;;;;;;0.67;0.67;;;-0.50;99.90;-0.80;100910.00;;;;4948734;28;20557;-68
2022/12/12 09:44:03;;;;;;;1.87;1.77;;;-0.20;99.90;-0.40;100915.00;;;;4941514;28;20708;-67
2022/12/12 09:46:43;;;;;;;3.23;1.37;;;0.00;99.90;-0.70;100878.00;;;;4952498;28;20194;-69
2022/12/12 09:49:26;;;;;;;3.10;2.83;;;0.10;99.90;0.10;100917.00;;;;4957918;28;20196;-67
2022/12/12 09:51:54;;;;;;;1.70;1.70;;;0.40;99.90;0.10;100924.00;;;;4974081;28;20224;-66
2022/12/12 09:54:25;;;;;;;1.27;1.10;;;0.60;99.90;-0.20;100926.00;;;;4975404;28;20197;-67
2022/12/12 09:57:32;;;;;;;1.23;1.13;;;0.70;99.90;0.30;100930.00;;;;4990699;28;20205;-69
2022/12/12 10:00:05;;;;;;;1.17;0.87;;;0.80;99.90;-0.20;100938.00;;;;4919689;29;20214;-66
2022/12/12 10:03:22;;;;;;;0.40;0.40;;;0.70;99.90;0.20;100932.00;;;;4968317;28;20211;-68
2022/12/12 10:06:02;;;;;;;0.30;0.30;;;0.70;99.90;0.60;100908.00;;;;4977384;28;20282;-66
2022/12/12 10:09:01;;;;;;;8.00;7.37;;;1.10;99.90;0.20;100906.00;;;;4984510;28;20199;-67
2022/12/12 10:11:50;;;;;;;3.00;2.00;;;1.10;99.90;0.00;100951.00;;;;4948675;28;20216;-69
2022/12/12 10:14:52;;;;;;;0.50;0.50;;;1.00;99.90;0.60;100953.00;;;;4981361;28;20559;-67
2022/12/12 10:18:10;;;;;;;2.30;1.90;;;1.20;99.90;0.40;100952.00;;;;4973319;28;20223;-66
2022/12/12 10:20:50;;;;;;;1.60;1.50;;;1.00;99.90;0.20;100953.00;;;;4985918;28;20195;-67
2022/12/12 10:33:55;;;;;;;0.50;0.50;;;1.40;99.90;-0.20;100951.00;;;;5123400;27;20599;-68
2022/12/12 10:36:53;;;;;;;1.60;1.50;;;1.10;99.90;0.10;100950.00;;;;5108058;28;20188;-68
2022/12/12 10:39:54;;;;;;;1.30;0.83;;;1.20;99.90;0.60;100932.00;;;;5107366;28;20184;-68
2022/12/12 10:42:46;;;;;;;2.53;2.43;;;1.00;99.90;0.40;100951.00;;;;5106790;28;20278;-68
2022/12/12 10:45:47;;;;;;;4.27;1.47;;;1.30;99.90;1.00;100905.00;;;;5107903;28;20191;-69
2022/12/12 10:48:33;;;;;;;1.97;1.83;;;1.50;99.90;1.30;100929.00;;;;5108614;28;20185;-68
2022/12/12 10:51:10;;;;;;;0.27;0.27;;;1.80;99.90;1.60;100958.00;;;;5101709;28;20606;-68
2022/12/12 10:53:40;;;;;;;0.20;0.20;;;2.10;99.90;1.40;100950.00;;;;5122846;28;20249;-68
2022/12/12 10:56:25;;;;;;;0.30;0.30;;;1.90;99.90;1.50;100946.00;;;;5108359;28;20651;-68
2022/12/12 10:59:00;;;;;;;1.10;1.00;;;2.00;99.90;2.00;100962.00;;;;5107778;28;20700;-68
2022/12/12 11:01:36;;;;;;;1.50;1.03;;;2.30;99.90;2.10;100970.00;;;;5123868;28;20658;-68
2022/12/12 11:04:18;;;;;;;0.63;0.63;;;2.30;99.90;1.20;100966.00;;;;5106616;28;20188;-68
2022/12/12 11:06:54;;;;;;;2.07;1.97;;;2.00;99.90;1.40;100956.00;;;;5106182;28;20191;-68
2022/12/12 11:09:29;;;;;;;2.53;1.70;;;1.90;99.90;1.90;100961.00;;;;5106162;28;20192;-68
2022/12/12 11:12:14;;;;;;;1.77;1.00;;;2.10;99.90;2.10;100961.00;;;;5106065;28;20206;-68
2022/12/12 11:14:54;;;;;;;4.37;3.17;;;2.40;99.90;2.70;100955.00;;;;5106370;28;20188;-68
2022/12/12 11:17:57;;;;;;;0.33;0.33;;;2.70;99.90;2.50;100912.00;;;;5105620;28;20203;-66
2022/12/12 11:20:31;;;;;;;0.43;0.43;;;2.90;99.90;1.90;100954.00;;;;5100303;28;20655;-68
2022/12/12 11:22:57;;;;;;;0.57;0.57;;;2.60;99.90;2.40;100950.00;;;;5089851;28;20299;-69
2022/12/12 11:26:00;;;;;;;5.40;3.70;;;2.60;99.90;2.90;100959.00;;;;5091566;28;20532;-69
2022/12/12 11:28:32;;;;;;;1.20;1.17;;;3.10;99.90;2.20;100962.00;;;;5105184;28;20199;-69
2022/12/12 11:31:10;;;;;;;3.13;2.13;;;2.90;99.90;2.50;100956.00;;;;5106652;28;20192;-69
2022/12/12 11:34:01;;;;;;;2.90;0.90;;;2.90;99.90;2.00;100951.00;;;;5105110;28;20698;-69
2022/12/12 11:37:16;;;;;;;1.77;1.67;;;2.60;99.90;2.20;100954.00;;;;5107320;28;20649;-69
2022/12/12 11:40:03;;;;;;;0.20;0.20;;;2.70;99.90;2.40;100945.00;;;;5112445;28;20219;-72
2022/12/12 11:42:31;;;;;;;1.00;1.00;;;2.70;99.90;3.00;100909.00;;;;5084834;28;20184;-72
2022/12/12 11:45:22;;;;;;;0.77;0.77;;;2.90;99.90;2.60;100953.00;;;;5088057;28;20231;-73
2022/12/12 11:47:48;;;;;;;0.63;0.63;;;3.00;99.90;2.90;100944.00;;;;5109499;28;20178;-72
2022/12/12 11:50:24;;;;;;;5.70;3.87;;;3.20;99.90;3.70;100951.00;;;;5111297;28;20333;-73
2022/12/12 11:53:01;;;;;;;2.10;2.00;;;3.50;99.90;3.90;100950.00;;;;5089089;28;20205;-72
2022/12/12 11:56:02;;;;;;;2.93;1.40;;;3.70;99.90;3.40;100966.00;;;;5077867;28;20214;-72
2022/12/12 11:58:55;;;;;;;2.53;2.33;;;3.70;99.90;2.90;100949.00;;;;5086438;28;20200;-72
2022/12/12 12:01:25;;;;;;;1.07;1.07;;;3.40;99.90;3.60;100954.00;;;;5082103;28;20192;-72
2022/12/12 12:04:39;;;;;;;3.50;1.93;;;3.60;99.90;2.60;100949.00;;;;5081278;28;20220;-72
2022/12/12 12:07:58;;;;;;;0.63;0.63;;;3.40;99.90;2.60;100949.00;;;;5078864;28;20257;-72
2022/12/12 12:11:19;;;;;;;0.47;0.47;;;3.20;99.90;3.40;100943.00;;;;5089955;28;20208;-72
2022/12/12 12:14:25;;;;;;;0.33;0.33;;;3.20;99.90;2.90;100950.00;;;;5067598;28;20192;-72
2022/12/12 12:17:15;;;;;;;0.67;0.67;;;3.50;99.90;3.40;100945.00;;;;5101808;28;20184;-72
2022/12/12 12:19:50;;;;;;;0.97;0.97;;;3.50;99.90;3.80;100940.00;;;;5093857;28;20189;-72
2022/12/12 12:22:40;;;;;;;2.43;0.90;;;3.80;99.90;3.50;100942.00;;;;5107563;28;20754;-72
2022/12/12 12:25:55;;;;;;;5.43;2.93;;;3.90;99.90;3.70;100944.00;;;;5093839;28;20265;-72
2022/12/12 12:28:56;;;;;;;2.27;1.07;;;3.90;99.90;4.00;100947.00;;;;5062513;28;20218;-72
2022/12/12 12:31:35;;;;;;;2.73;1.77;;;3.90;99.90;3.70;100945.00;;;;5089991;28;20744;-72
2022/12/12 12:34:38;;;;;;;4.13;1.90;;;3.90;99.90;3.10;100938.00;;;;5088292;28;20209;-73
2022/12/12 12:37:40;;;;;;;7.32;2.55;;;3.60;99.90;3.80;100933.00;;;;5083898;28;20410;-72
2022/12/12 12:40:33;;;;;;;0.60;0.60;;;3.80;99.90;3.30;100937.00;;;;5079057;28;20180;-72
2022/12/12 12:43:26;;;;;;;0.23;0.23;;;3.70;99.90;4.20;100925.00;;;;5078450;28;20204;-72
2022/12/12 12:46:53;;;;;;;0.67;0.67;;;4.00;99.90;4.80;100934.00;;;;5084354;28;20211;-72
2022/12/12 12:49:34;;;;;;;0.57;0.57;;;4.50;99.90;4.40;100933.00;;;;5084261;28;20195;-72
2022/12/12 12:52:20;;;;;;;0.37;0.37;;;4.40;99.90;4.40;100919.00;;;;5089887;28;20667;-72
2022/12/12 12:54:48;;;;;;;1.87;1.77;;;4.40;99.90;3.10;100927.00;;;;5084089;28;20214;-72
2022/12/12 12:57:33;;;;;;;0.83;0.83;;;3.90;99.90;3.00;100937.00;;;;5110513;28;20639;-72
2022/12/12 13:00:24;;;;;;;2.97;1.40;;;3.50;99.90;2.60;100923.00;;;;5089875;28;20243;-72
2022/12/12 13:03:56;;;;;;;3.77;3.57;;;3.30;99.90;2.30;100928.00;;;;5086206;28;20181;-65
2022/12/12 13:06:53;;;;;;;0.20;0.20;;;3.00;99.90;2.60;100924.00;;;;5076733;28;20211;-68
2022/12/12 13:09:45;;;;;;;2.20;1.40;;;3.00;99.90;2.20;100930.00;;;;5083347;28;20204;-68
2022/12/12 13:13:20;;;;;;;0.40;0.40;;;2.90;99.90;2.50;100925.00;;;;5086845;28;20204;-68
2022/12/12 13:15:54;;;;;;;0.23;0.23;;;2.60;99.90;2.50;100934.00;;;;5099375;28;20189;-68
2022/12/12 13:18:20;;;;;;;1.10;1.00;;;2.80;99.90;2.40;100927.00;;;;5106443;28;20228;-68
2022/12/12 13:21:47;;;;;;;0.20;0.20;;;2.80;99.90;3.10;100922.00;;;;5087982;28;20180;-69
2022/12/12 13:24:29;;;;;;;1.73;1.10;;;2.90;99.90;3.20;100929.00;;;;5083659;28;20682;-69
2022/12/12 13:27:45;;;;;;;0.20;0.20;;;3.20;99.90;3.30;100923.00;;;;5076623;28;20181;-69
2022/12/12 13:30:42;;;;;;;0.30;0.30;;;3.30;99.90;3.20;100927.00;;;;5073506;28;20205;-68
2022/12/12 13:33:36;;;;;;;0.40;0.40;;;3.40;99.90;3.10;100903.00;;;;5086827;28;20673;-69
2022/12/12 13:36:16;;;;;;;0.20;0.20;;;3.40;99.90;2.90;100912.00;;;;5085156;28;20188;-69
2022/12/12 13:38:50;;;;;;;1.37;1.37;;;3.10;99.90;3.60;100899.00;;;;5091490;28;20238;-69
2022/12/12 13:41:52;;;;;;;0.20;0.20;;;3.50;99.90;3.80;100919.00;;;;5086465;28;20228;-69
2022/12/12 13:44:47;;;;;;;0.20;0.20;;;3.70;99.90;4.00;100916.00;;;;5092327;28;20185;-69
2022/12/12 13:47:22;;;;;;;0.50;0.50;;;3.80;99.90;2.70;100918.00;;;;5084087;28;20193;-69
2022/12/12 13:50:09;;;;;;;0.40;0.40;;;3.40;99.90;3.10;100917.00;;;;5086519;28;20188;-69
2022/12/12 13:52:42;;;;;;;0.73;0.57;;;3.20;99.90;3.60;100912.00;;;;5089312;28;20224;-69
2022/12/12 13:55:28;;;;;;;0.20;0.20;;;3.40;99.90;3.30;100893.00;;;;5091255;28;20176;-69
2022/12/12 13:58:07;;;;;;;0.97;0.97;;;3.40;99.90;3.60;100920.00;;;;5073939;28;20207;-69
2022/12/12 14:00:40;;;;;;;0.40;0.40;;;3.50;99.90;3.30;100921.00;;;;5085198;28;20191;-69
2022/12/12 14:03:09;;;;;;;4.33;3.73;;;3.40;99.90;3.40;100912.00;;;;5104531;28;20193;-68
2022/12/12 14:05:47;;;;;;;0.40;0.40;;;3.30;99.90;3.20;100909.00;;;;5085744;28;20992;-70
2022/12/12 14:08:12;;;;;;;0.30;0.30;;;3.40;99.90;2.90;100902.00;;;;5084611;28;20667;-72
2022/12/12 14:11:03;;;;;;;0.53;0.53;;;3.30;99.90;2.70;100863.00;;;;5089584;28;20192;-72
2022/12/12 14:13:39;;;;;;;0.70;0.70;;;3.10;99.90;3.30;100905.00;;;;5086541;28;20695;-72
2022/12/12 14:16:24;;;;;;;0.83;0.83;;;3.20;99.90;3.00;100909.00;;;;5080154;28;20191;-72
2022/12/12 14:18:58;;;;;;;0.97;0.97;;;3.20;99.90;3.40;100867.00;;;;5077713;28;20176;-72
2022/12/12 14:21:46;;;;;;;1.90;1.77;;;3.30;99.90;2.90;100909.00;;;;5099051;28;20186;-72
2022/12/12 14:24:37;;;;;;;6.13;1.93;;;3.20;99.90;2.80;100898.00;;;;5091914;28;20180;-72
2022/12/12 14:27:48;;;;;;;0.87;0.87;;;3.10;99.90;2.80;100912.00;;;;5079600;28;20204;-72
2022/12/12 14:30:24;;;;;;;5.77;4.93;;;3.10;99.90;3.20;100921.00;;;;5095757;28;20201;-72
2022/12/12 14:33:15;;;;;;;6.03;2.47;;;3.10;99.90;3.20;100887.00;;;;5078300;28;20196;-72
2022/12/12 14:36:18;;;;;;;3.30;1.80;;;3.10;99.90;3.10;100919.00;;;;5086712;28;20188;-71
2022/12/12 14:39:32;;;;;;;2.37;2.23;;;3.10;99.90;2.60;100920.00;;;;5072625;28;20258;-72
2022/12/12 14:42:23;;;;;;;0.20;0.20;;;3.00;99.90;2.50;100880.00;;;;5086285;28;20188;-72
2022/12/12 14:45:27;;;;;;;0.30;0.30;;;2.70;99.90;2.70;100925.00;;;;5090004;28;20184;-72
2022/12/12 14:48:35;;;;;;;1.23;1.13;;;2.70;99.90;2.80;100935.00;;;;5088033;28;20267;-72
2022/12/12 14:51:29;;;;;;;0.20;0.20;;;2.80;99.90;3.30;100930.00;;;;5087019;28;20192;-72
2022/12/12 14:54:02;;;;;;;2.43;2.33;;;2.90;99.90;3.10;100932.00;;;;5090282;28;20769;-72
2022/12/12 14:57:08;;;;;;;0.30;0.30;;;2.90;99.90;3.00;100919.00;;;;5083147;28;20652;-72
2022/12/12 14:59:39;;;;;;;1.30;1.30;;;2.90;99.90;2.20;100931.00;;;;5070762;28;20217;-72
2022/12/12 15:02:24;;;;;;;0.20;0.20;;;2.70;99.90;2.30;100899.00;;;;5079360;28;20210;-72
2022/12/12 15:05:08;;;;;;;2.83;2.63;;;2.50;99.90;2.30;100928.00;;;;5086864;28;20180;-72
2022/12/12 15:07:39;;;;;;;0.53;0.53;;;2.40;99.90;2.60;100937.00;;;;5090178;28;20192;-72
2022/12/12 15:10:23;;;;;;;1.17;1.17;;;2.50;99.90;2.40;100911.00;;;;5086851;28;20650;-72
2022/12/12 15:13:19;;;;;;;0.80;0.80;;;2.40;99.90;2.10;100933.00;;;;5101916;28;20197;-72
2022/12/12 15:15:49;;;;;;;0.30;0.30;;;2.40;99.90;1.60;100921.00;;;;5091642;28;20234;-72
2022/12/12 15:18:22;;;;;;;2.73;2.63;;;2.20;99.90;1.80;100929.00;;;;5091720;28;20210;-72
2022/12/12 15:21:06;;;;;;;1.43;1.43;;;2.20;99.90;2.00;100876.00;;;;5086563;28;20219;-71
2022/12/12 15:23:49;;;;;;;7.17;6.57;;;2.10;99.90;1.90;100923.00;;;;5110824;28;20176;-71
2022/12/12 15:26:37;;;;;;;3.60;3.40;;;2.20;99.90;2.00;100931.00;;;;5081415;28;20188;-71
2022/12/12 15:29:03;;;;;;;2.73;2.53;;;2.20;99.90;1.80;100920.00;;;;5078056;28;20197;-71
2022/12/12 15:31:37;;;;;;;0.97;0.97;;;2.10;99.90;1.70;100928.00;;;;5085553;28;20707;-71
2022/12/12 15:34:03;;;;;;;0.23;0.23;;;2.00;99.90;1.80;100899.00;;;;5095197;28;20667;-71
2022/12/12 15:36:38;;;;;;;0.20;0.20;;;2.00;99.90;2.40;100886.00;;;;5105455;28;20181;-71
2022/12/12 15:39:32;;;;;;;1.73;1.63;;;2.10;99.90;2.20;100939.00;;;;5111372;28;20281;-71
2022/12/12 15:42:13;;;;;;;0.40;0.40;;;2.10;99.90;2.30;100927.00;;;;5057963;28;20185;-71
2022/12/12 15:44:49;;;;;;;0.30;0.30;;;2.10;99.90;2.10;100948.00;;;;5088085;28;20706;-71
2022/12/12 15:47:16;;;;;;;0.40;0.40;;;2.10;99.90;1.90;100953.00;;;;5077524;28;20628;-71
2022/12/12 15:49:44;;;;;;;0.60;0.60;;;2.00;99.90;1.80;100960.00;;;;5089676;28;20285;-71
2022/12/12 15:52:25;;;;;;;0.30;0.30;;;1.90;99.90;1.70;100906.00;;;;5094565;28;20566;-71
2022/12/12 15:55:03;;;;;;;1.07;1.07;;;1.70;99.90;1.40;100937.00;;;;5081178;28;20189;-71
2022/12/12 15:58:17;;;;;;;0.30;0.30;;;1.60;99.90;1.30;100943.00;;;;5088162;28;20184;-71
2022/12/12 16:00:51;;;;;;;0.30;0.30;;;1.40;99.90;1.40;100941.00;;;;5080451;28;20665;-71
2022/12/12 16:03:21;;;;;;;1.83;1.73;;;1.30;99.90;1.40;100934.00;;;;5093094;28;20188;-71
2022/12/12 16:06:03;;;;;;;1.80;1.70;;;1.40;99.90;1.80;100945.00;;;;5091550;28;20253;-71
2022/12/12 16:08:53;;;;;;;0.30;0.30;;;1.50;99.90;1.70;100952.00;;;;5079543;28;20591;-71
2022/12/12 16:11:41;;;;;;;0.30;0.30;;;1.60;99.90;1.70;100951.00;;;;5101864;28;20196;-69
2022/12/12 16:14:40;;;;;;;0.33;0.33;;;1.60;99.90;1.20;100949.00;;;;5090850;28;20207;-68
2022/12/12 16:17:17;;;;;;;1.13;1.03;;;1.50;99.90;1.20;100938.00;;;;5090939;28;20550;-66
2022/12/12 16:20:00;;;;;;;0.43;0.43;;;1.40;99.90;0.60;100933.00;;;;5107925;28;20271;-71
2022/12/12 16:22:45;;;;;;;0.40;0.40;;;1.20;99.90;0.50;100925.00;;;;5072811;28;20628;-67
2022/12/12 16:25:38;;;;;;;3.30;3.10;;;0.90;99.90;0.30;100925.00;;;;5089898;28;20687;-66
2022/12/12 16:28:07;;;;;;;0.40;0.40;;;0.90;99.90;0.90;100877.00;;;;5091270;28;20188;-66
2022/12/12 16:30:35;;;;;;;1.10;1.10;;;0.90;99.90;1.00;100922.00;;;;5083963;28;20184;-69
2022/12/12 16:33:38;;;;;;;2.40;1.30;;;1.00;99.90;0.80;100919.00;;;;5083354;28;20699;-69
2022/12/12 16:36:18;;;;;;;1.43;1.33;;;1.00;99.90;0.90;100931.00;;;;5081687;28;20201;-69
2022/12/12 16:38:44;;;;;;;0.63;0.63;;;1.10;99.90;0.90;100878.00;;;;5107184;28;20192;-68
2022/12/12 16:41:18;;;;;;;3.07;2.87;;;1.20;99.90;1.20;100915.00;;;;5085038;28;20177;-68
2022/12/12 16:43:46;;;;;;;1.03;1.03;;;1.20;99.90;1.00;100918.00;;;;5092557;28;20522;-70
2022/12/12 16:46:24;;;;;;;0.40;0.40;;;1.10;99.90;0.80;100913.00;;;;5079139;28;20185;-70
2022/12/12 16:48:50;;;;;;;0.73;0.73;;;1.00;99.90;0.80;100893.00;;;;5083367;28;20177;-70
2022/12/12 16:51:29;;;;;;;1.53;1.43;;;1.00;99.90;1.20;100923.00;;;;5101956;28;20189;-70
2022/12/12 16:53:56;;;;;;;0.70;0.70;;;1.10;99.90;1.10;100913.00;;;;5086304;28;20181;-68
2022/12/12 16:56:23;;;;;;;0.40;0.40;;;1.20;99.90;1.00;100914.00;;;;5091153;28;20549;-71
2022/12/12 16:58:52;;;;;;;0.80;0.67;;;1.10;99.90;1.00;100919.00;;;;5109639;28;20185;-70
2022/12/12 17:01:19;;;;;;;4.47;2.83;;;1.10;99.90;0.60;100935.00;;;;5081951;28;20192;-67
2022/12/12 17:03:45;;;;;;;0.80;0.80;;;1.00;99.90;0.50;100923.00;;;;5079100;28;20181;-70
2022/12/12 17:06:13;;;;;;;1.03;1.03;;;0.80;99.90;0.90;100912.00;;;;5085087;28;20184;-70
2022/12/12 17:08:39;;;;;;;2.07;2.00;;;0.90;99.90;0.90;100919.00;;;;5090461;28;20275;-70
2022/12/12 17:11:05;;;;;;;1.27;1.27;;;1.00;99.90;0.60;100923.00;;;;5072581;28;20589;-72
2022/12/12 17:13:32;;;;;;;0.80;0.80;;;0.80;99.90;0.80;100888.00;;;;5101991;28;20212;-73
2022/12/12 17:15:59;;;;;;;0.40;0.40;;;0.90;99.90;1.00;100917.00;;;;5089134;28;20258;-73
2022/12/12 17:18:25;;;;;;;1.33;1.27;;;1.00;99.90;0.40;100914.00;;;;5086486;28;20203;-72
2022/12/12 17:20:51;;;;;;;0.40;0.40;;;0.80;99.90;0.10;100863.00;;;;5083798;28;20185;-72
2022/12/12 17:23:21;;;;;;;0.40;0.40;;;0.60;99.90;0.60;100912.00;;;;5109259;28;20617;-73
2022/12/12 17:25:55;;;;;;;0.60;0.60;;;0.60;99.90;0.80;100900.00;;;;5079922;28;20189;-73
2022/12/12 17:28:28;;;;;;;0.53;0.53;;;0.80;99.90;0.70;100910.00;;;;5092644;28;20181;-71
2022/12/12 17:30:54;;;;;;;0.40;0.40;;;0.80;99.90;0.90;100918.00;;;;5078549;28;20618;-72
2022/12/12 17:34:09;;;;;;;0.40;0.40;;;0.90;99.90;0.70;100881.00;;;;5082443;28;20240;-73
2022/12/12 17:36:35;;;;;;;0.50;0.50;;;0.80;99.90;0.50;100918.00;;;;5084936;28;20181;-71
2022/12/12 17:39:01;;;;;;;0.70;0.70;;;0.70;99.90;0.80;100874.00;;;;5079421;28;20235;-70
2022/12/12 17:41:27;;;;;;;0.87;0.87;;;0.70;99.90;0.40;100909.00;;;;5086581;28;20539;-71
2022/12/12 17:44:08;;;;;;;0.60;0.60;;;0.60;99.90;0.30;100905.00;;;;5077648;28;20184;-71
2022/12/12 17:46:34;;;;;;;6.00;3.83;;;0.50;99.90;0.20;100899.00;;;;5079783;28;20239;-71
2022/12/12 17:49:05;;;;;;;0.60;0.60;;;0.40;99.90;0.30;100902.00;;;;5109569;28;20188;-71
2022/12/12 17:51:31;;;;;;;0.60;0.60;;;0.40;99.90;0.40;100868.00;;;;5075659;28;20192;-71
2022/12/12 17:53:59;;;;;;;0.97;0.97;;;0.50;99.90;0.50;100902.00;;;;5075969;28;20238;-71
2022/12/12 17:56:26;;;;;;;1.03;1.03;;;0.60;99.90;0.10;100903.00;;;;5085516;28;20188;-71
2022/12/12 17:58:53;;;;;;;2.93;2.73;;;0.50;99.90;0.10;100894.00;;;;5076055;28;20185;-71
2022/12/12 18:01:27;;;;;;;0.70;0.70;;;0.40;99.90;0.40;100895.00;;;;5084814;28;20193;-71
2022/12/12 18:04:13;;;;;;;0.40;0.40;;;0.50;99.90;0.60;100894.00;;;;5098301;28;20279;-71
2022/12/12 18:06:59;;;;;;;0.50;0.50;;;0.60;99.90;0.60;100897.00;;;;5087721;28;20180;-72
2022/12/12 18:09:28;;;;;;;1.20;1.17;;;0.60;99.90;0.70;100902.00;;;;5073756;28;20277;-72
2022/12/12 18:11:53;;;;;;;0.95;0.95;;;0.70;99.90;0.50;100906.00;;;;5076235;28;20445;-72
2022/12/12 18:14:20;;;;;;;1.33;1.33;;;0.60;99.90;0.30;100892.00;;;;5078665;28;20177;-72
2022/12/12 18:16:49;;;;;;;0.50;0.50;;;0.50;99.90;0.00;100895.00;;;;5076216;28;20188;-72
2022/12/12 18:19:23;;;;;;;1.33;1.33;;;0.40;99.90;0.30;100897.00;;;;5091420;28;20263;-72
2022/12/12 18:21:50;;;;;;;1.10;1.10;;;0.30;99.90;0.20;100890.00;;;;5089528;28;20195;-71
2022/12/12 18:24:19;;;;;;;1.77;1.00;;;0.40;99.90;0.30;100902.00;;;;5080678;28;20213;-71
2022/12/12 18:26:50;;;;;;;1.97;1.20;;;0.40;99.90;0.30;100895.00;;;;5085615;28;20261;-71
2022/12/12 18:29:16;;;;;;;0.50;0.50;;;0.40;99.90;0.10;100895.00;;;;5074425;28;20193;-71
2022/12/12 18:31:44;;;;;;;0.80;0.80;;;0.40;99.90;-0.20;100859.00;;;;5098330;28;20209;-71
2022/12/12 18:34:10;;;;;;;0.77;0.77;;;0.30;99.90;-0.60;100889.00;;;;5083128;28;20554;-71
2022/12/12 18:36:36;;;;;;;0.50;0.50;;;0.10;99.90;-0.40;100875.00;;;;5081228;28;20191;-71
2022/12/12 18:39:11;;;;;;;0.80;0.80;;;0.00;99.90;0.10;100835.00;;;;5076504;28;20265;-71
2022/12/12 18:41:37;;;;;;;0.80;0.80;;;0.20;99.90;0.20;100876.00;;;;5071376;28;20704;-71
2022/12/12 18:44:11;;;;;;;0.80;0.80;;;0.20;99.90;0.30;100887.00;;;;5077144;28;20219;-71
2022/12/12 18:46:38;;;;;;;1.47;1.37;;;0.30;99.90;0.20;100886.00;;;;5090608;28;20227;-71
2022/12/12 18:49:06;;;;;;;2.00;1.90;;;0.40;99.90;-0.10;100872.00;;;;5106415;28;20185;-71
2022/12/12 18:51:32;;;;;;;1.93;1.83;;;0.20;99.90;0.30;100882.00;;;;5086389;28;20672;-71
2022/12/12 18:54:41;;;;;;;1.70;1.63;;;0.30;99.90;0.10;100879.00;;;;5090094;28;20271;-64
2022/12/12 18:57:27;;;;;;;1.67;1.57;;;0.30;99.90;0.00;100890.00;;;;5099079;28;20231;-60
2022/12/12 19:00:14;;;;;;;1.37;1.37;;;0.30;99.90;0.10;100877.00;;;;5078545;28;20208;-66
2022/12/12 19:03:15;;;;;;;2.70;2.60;;;0.20;99.90;0.10;100891.00;;;;5084609;28;20195;-68
2022/12/12 19:05:42;;;;;;;0.60;0.60;;;0.30;99.90;0.20;100877.00;;;;5082269;28;20616;-66
2022/12/12 19:08:44;;;;;;;2.20;2.10;;;0.30;99.90;-0.40;100865.00;;;;5093379;28;20520;-67
2022/12/12 19:11:11;;;;;;;0.73;0.73;;;0.20;99.90;0.00;100883.00;;;;5088173;28;20188;-66
2022/12/12 19:13:37;;;;;;;2.57;2.47;;;0.30;99.90;0.00;100885.00;;;;5091517;28;20224;-66
2022/12/12 19:16:10;;;;;;;1.20;1.10;;;0.30;99.90;0.00;100851.00;;;;5090630;28;20188;-66
2022/12/12 19:18:37;;;;;;;0.80;0.80;;;0.20;99.90;-0.20;100877.00;;;;5093511;28;20263;-66
2022/12/12 19:21:22;;;;;;;4.30;4.07;;;0.10;99.90;-0.10;100890.00;;;;5077995;28;20188;-67
2022/12/12 19:23:49;;;;;;;1.90;1.80;;;0.10;99.90;0.00;100893.00;;;;5077273;28;20249;-66
2022/12/12 19:26:24;;;;;;;1.93;1.83;;;0.20;99.90;0.00;100887.00;;;;5092896;28;20193;-66
2022/12/12 19:28:54;;;;;;;2.97;2.70;;;0.20;99.90;-0.30;100891.00;;;;5109417;27;20659;-66
2022/12/12 19:31:26;;;;;;;1.10;1.10;;;0.10;99.90;-0.10;100886.00;;;;5089267;28;20209;-66
2022/12/12 19:33:52;;;;;;;1.47;1.47;;;0.00;99.90;0.00;100889.00;;;;5093493;28;20188;-67
2022/12/12 19:36:24;;;;;;;2.50;2.40;;;0.10;99.90;-0.30;100886.00;;;;5108778;28;20312;-66
2022/12/12 19:38:52;;;;;;;1.30;1.30;;;0.10;99.90;-0.40;100896.00;;;;5093339;28;20596;-66
2022/12/12 19:41:20;;;;;;;1.97;1.80;;;-0.10;99.90;-0.40;100853.00;;;;5093049;28;20201;-66
2022/12/12 19:43:49;;;;;;;0.67;0.67;;;-0.10;99.90;-0.40;100895.00;;;;5092023;28;20192;-66
2022/12/12 19:46:25;;;;;;;0.67;0.67;;;-0.10;99.90;0.00;100898.00;;;;5093525;28;20212;-67